PAJN/JNU METAR and TAF weather

Enter ICAO airport designator
Station Type Date Time Source
PAJN METAR 2020/11/27 02:53 UTC NOAA

PAJN 270253Z 06006KT 10SM BKN033 OVC055 03/00 A2983 RMK AO2 SLP100 T00280000 51015 $


Station Type Date Time Source
PAJN Decoded METAR 2020/11/27 02:53 UTC NOAA

JUNEAU INTERNATIONAL AIRPORT, AK, United States (PAJN) 58-21N 134-34W 8M
Nov 26, 2020 - 09:53 PM EST / 2020.11.27 0253 UTC
Wind: from the ENE (060 degrees) at 7 MPH (6 KT):0
Visibility: 10 mile(s):0
Sky conditions: overcast
Temperature: 37.0 F (2.8 C)
Dew Point: 32.0 F (0.0 C)
Relative Humidity: 81%
Pressure (altimeter): 29.83 in. Hg (1010 hPa)
Pressure tendency: 0.04 inches (1.5 hPa) higher than three hours ago
ob: PAJN 270253Z 06006KT 10SM BKN033 OVC055 03/00 A2983 RMK AO2 SLP100 T00280000 51015
cycle: 3

Station Type Date Time Source
PAJN TAF 2020/11/26 18:27 UTC NOAA

TAF PAJN 261725Z 2618/2718 11008KT 6SM -RA BR SCT025 OVC045 WS020/26025KT
FM262100 11008KT P6SM VCSH FEW020 BKN030 OVC050 WS020/26025KT
FM270300 VRB05KT P6SM VCSH OVC040

Example: see airport list